Time;durP1;ratioP1;P1;durP2;ratioP2;P2;SDS_P1;SDS_P2;PMS_P1;PMS_P2;Temp;Humidity;BMP_temperature;BMP_pressure;BME280_temperature;BME280_humidity;BME280_pressure;Samples;Min_cycle;Max_cycle;Signal;HPM_P1;HPM_P2
2021/08/23 00:02:12;;;;;;;9.48;7.40;;;;;;;21.78;60.57;95793.00;5010491;28;20133;-67
2021/08/23 00:04:37;;;;;;;7.80;7.00;;;;;;;21.04;60.98;95792.34;5010130;28;20466;-68
2021/08/23 00:07:04;;;;;;;9.70;8.20;;;;;;;21.21;61.55;95793.84;5011079;28;20025;-67
2021/08/23 00:09:29;;;;;;;9.00;7.72;;;;;;;21.48;60.92;95790.13;5009959;28;20091;-67
2021/08/23 00:11:55;;;;;;;14.68;8.38;;;;;;;20.98;60.96;95799.94;5010367;28;20041;-68
2021/08/23 00:14:20;;;;;;;11.35;8.65;;;;;;;20.56;61.40;95734.91;5009938;28;20068;-67
2021/08/23 00:16:45;;;;;;;8.50;7.63;;;;;;;21.07;61.36;95788.13;5010198;28;20424;-67
2021/08/23 00:19:11;;;;;;;9.90;8.32;;;;;;;20.71;60.45;95773.84;5011081;28;20030;-67
2021/08/23 00:21:42;;;;;;;10.00;8.57;;;;;;;20.74;61.23;95775.88;5010243;28;20044;-67
2021/08/23 00:24:21;;;;;;;11.25;8.63;;;;;;;21.26;60.81;95794.34;5009457;28;20068;-67
2021/08/23 00:26:46;;;;;;;12.35;8.00;;;;;;;20.93;61.18;95804.84;5010016;28;20045;-67
2021/08/23 00:29:11;;;;;;;12.38;8.90;;;;;;;20.76;61.25;95771.66;5008891;28;20488;-67
2021/08/23 00:31:37;;;;;;;15.05;10.63;;;;;;;21.16;60.87;95784.06;5008834;28;20125;-67
2021/08/23 00:34:03;;;;;;;10.40;8.85;;;;;;;21.00;60.89;95759.03;5011850;28;20029;-67
2021/08/23 00:36:28;;;;;;;12.95;9.60;;;;;;;21.10;60.67;95763.88;5009502;28;20535;-67
2021/08/23 00:38:53;;;;;;;11.95;9.25;;;;;;;21.32;60.84;95799.50;5008141;28;20049;-67
2021/08/23 00:41:19;;;;;;;8.93;7.68;;;;;;;21.14;60.77;95762.03;5008630;28;20038;-67
2021/08/23 00:43:44;;;;;;;10.82;7.75;;;;;;;21.18;60.85;95781.00;5009760;28;20038;-67
2021/08/23 00:46:10;;;;;;;6.88;6.28;;;;;;;21.15;61.58;95760.88;5009980;28;20061;-67
2021/08/23 00:48:36;;;;;;;11.85;8.45;;;;;;;21.35;61.01;95760.91;5008578;28;20053;-67
2021/08/23 00:51:02;;;;;;;12.23;8.05;;;;;;;21.62;61.08;95788.84;5009733;28;20053;-67
2021/08/23 00:53:28;;;;;;;9.68;7.65;;;;;;;21.63;60.62;95774.16;5006375;28;20046;-68
2021/08/23 00:55:55;;;;;;;11.07;8.55;;;;;;;21.55;60.75;95759.72;5007946;28;20046;-67
2021/08/23 00:58:20;;;;;;;9.15;7.93;;;;;;;21.77;60.52;95782.56;5009680;28;20546;-67
2021/08/23 01:00:54;;;;;;;10.93;8.55;;;;;;;21.65;60.95;95782.69;5010081;28;20022;-67
2021/08/23 01:03:27;;;;;;;9.82;7.47;;;;;;;21.78;60.80;95784.09;5009361;28;20046;-67
2021/08/23 01:05:53;;;;;;;10.73;8.88;;;;;;;21.82;60.30;95784.19;5008955;28;20038;-67
2021/08/23 01:08:33;;;;;;;10.27;8.05;;;;;;;21.74;60.30;95750.75;5008946;28;20471;-67
2021/08/23 01:11:06;;;;;;;9.50;7.00;;;;;;;22.02;59.87;95780.28;5009174;28;20038;-68
2021/08/23 01:13:33;;;;;;;9.30;7.90;;;;;;;21.82;60.40;95789.59;5009073;28;20033;-69
2021/08/23 01:15:58;;;;;;;9.15;7.88;;;;;;;21.59;59.83;95757.84;5009148;28;20045;-67
2021/08/23 01:18:23;;;;;;;17.98;11.68;;;;;;;21.60;59.50;95732.38;5007976;28;20030;-67
2021/08/23 01:20:51;;;;;;;10.45;8.27;;;;;;;21.75;60.07;95744.19;5009144;28;20042;-67
2021/08/23 01:23:20;;;;;;;8.48;7.38;;;;;;;21.85;60.10;95748.22;5008645;28;20131;-67
2021/08/23 01:25:47;;;;;;;10.18;7.13;;;;;;;22.06;59.90;95773.00;5008610;28;20038;-67
2021/08/23 01:28:21;;;;;;;8.18;7.25;;;;;;;21.87;59.15;95762.22;5011016;28;20061;-66
2021/08/23 01:31:15;;;;;;;7.88;7.18;;;;;;;22.03;59.72;95757.44;5008142;28;20141;-67
2021/08/23 01:33:42;;;;;;;7.15;6.47;;;;;;;21.80;59.54;95716.81;5008978;28;20030;-67
2021/08/23 01:36:08;;;;;;;8.38;6.55;;;;;;;22.09;59.33;95760.63;5008606;28;20088;-66
2021/08/23 01:38:34;;;;;;;9.60;7.63;;;;;;;21.91;59.04;95746.81;5004386;28;20038;-66
2021/08/23 01:41:05;;;;;;;8.20;7.40;;;;;;;21.89;59.05;95768.81;5005028;28;20030;-66
2021/08/23 01:43:31;;;;;;;10.52;8.18;;;;;;;21.87;59.40;95773.06;5008887;28;20022;-67
2021/08/23 01:45:57;;;;;;;8.50;7.07;;;;;;;21.84;58.83;95774.53;5010210;28;20038;-68
2021/08/23 01:48:23;;;;;;;9.88;7.00;;;;;;;21.70;59.51;95780.50;5008894;28;20046;-67
2021/08/23 01:50:48;;;;;;;11.70;9.10;;;;;;;21.54;59.53;95777.88;5008781;28;20554;-66
2021/08/23 01:53:16;;;;;;;8.93;7.53;;;;;;;21.37;59.76;95766.72;5007825;28;20395;-67
2021/08/23 01:55:41;;;;;;;10.88;7.65;;;;;;;21.13;59.72;95740.72;5023273;28;20046;-66
2021/08/23 01:58:06;;;;;;;12.02;8.40;;;;;;;21.29;59.95;95752.22;5010668;28;20472;-66
2021/08/23 02:00:32;;;;;;;12.43;8.18;;;;;;;21.41;59.70;95751.34;5008694;28;20428;-66
2021/08/23 02:02:57;;;;;;;14.48;9.35;;;;;;;21.19;59.75;95748.22;5008618;28;20072;-66
2021/08/23 02:05:23;;;;;;;13.40;8.07;;;;;;;21.25;59.78;95757.59;5008451;28;20483;-66
2021/08/23 02:07:48;;;;;;;8.85;7.90;;;;;;;21.36;59.75;95765.94;5008334;28;20124;-66
2021/08/23 02:10:16;;;;;;;11.82;7.22;;;;;;;21.33;59.86;95763.16;5009890;28;20523;-67
2021/08/23 02:12:41;;;;;;;9.25;7.50;;;;;;;21.28;59.84;95775.81;5007163;28;20487;-66
2021/08/23 02:15:07;;;;;;;7.30;6.47;;;;;;;21.30;59.85;95778.19;5008349;28;20129;-66
2021/08/23 02:17:32;;;;;;;9.88;8.93;;;;;;;21.21;59.68;95764.84;5008341;28;20065;-67
2021/08/23 02:19:57;;;;;;;10.68;8.40;;;;;;;21.06;59.78;95754.09;5008606;28;20038;-66
2021/08/23 02:22:23;;;;;;;8.93;7.70;;;;;;;21.25;59.74;95773.81;5008433;28;20033;-66
2021/08/23 02:24:48;;;;;;;12.77;7.85;;;;;;;21.24;59.85;95766.03;5009043;28;20495;-66
2021/08/23 02:27:14;;;;;;;9.25;7.85;;;;;;;21.34;59.53;95778.25;5008127;28;20125;-66
2021/08/23 02:29:39;;;;;;;9.48;6.00;;;;;;;21.24;59.85;95753.34;5010329;28;20038;-66
2021/08/23 02:32:05;;;;;;;9.77;7.82;;;;;;;21.39;59.34;95767.91;5012227;28;20073;-66
2021/08/23 02:34:30;;;;;;;7.13;5.97;;;;;;;21.32;58.06;95780.53;5011873;28;20030;-67
2021/08/23 02:36:55;;;;;;;8.70;6.07;;;;;;;21.13;59.54;95752.31;5013961;28;20488;-66
2021/08/23 02:39:21;;;;;;;7.35;6.00;;;;;;;21.14;59.71;95724.16;5011635;28;20045;-67
2021/08/23 02:41:53;;;;;;;6.47;5.75;;;;;;;21.31;59.95;95749.22;5011739;28;20076;-67
2021/08/23 02:44:18;;;;;;;6.72;4.75;;;;;;;21.54;59.96;95777.09;5024728;23;20061;-75
2021/08/23 02:46:44;;;;;;;6.55;5.20;;;;;;;21.44;59.55;95767.63;4992589;28;20053;-75
2021/08/23 02:49:09;;;;;;;6.85;5.45;;;;;;;21.24;59.79;95768.75;5028730;28;20482;-75
2021/08/23 02:51:34;;;;;;;8.07;5.68;;;;;;;21.33;59.97;95765.88;5011623;28;20093;-74
2021/08/23 02:53:59;;;;;;;8.93;6.95;;;;;;;21.34;59.52;95740.38;5000031;28;20042;-74
2021/08/23 02:56:25;;;;;;;5.10;4.63;;;;;;;21.22;59.00;95755.59;5012972;28;20099;-73
2021/08/23 02:58:50;;;;;;;5.10;4.28;;;;;;;21.05;60.07;95750.63;5029897;28;20041;-74
2021/08/23 03:01:16;;;;;;;4.60;4.15;;;;;;;20.90;60.14;95748.78;5033867;28;20521;-74
2021/08/23 03:03:42;;;;;;;6.07;5.30;;;;;;;21.28;59.88;95770.41;5030418;28;20124;-74
2021/08/23 03:06:08;;;;;;;5.65;4.28;;;;;;;21.43;59.32;95776.13;5031039;28;20034;-74
2021/08/23 03:08:33;;;;;;;6.13;4.82;;;;;;;20.71;58.29;95746.81;5028350;28;20103;-74
2021/08/23 03:11:10;;;;;;;5.68;4.53;;;;;;;20.83;59.58;95752.13;5011612;28;20045;-74
2021/08/23 03:13:36;;;;;;;4.93;4.43;;;;;;;21.00;60.35;95759.03;5011716;28;20676;-74
2021/08/23 03:16:01;;;;;;;6.43;4.63;;;;;;;21.00;60.51;95738.16;5012346;28;20034;-74
2021/08/23 03:18:27;;;;;;;7.47;5.07;;;;;;;21.33;60.55;95763.94;5011820;28;20033;-74
2021/08/23 03:20:52;;;;;;;6.45;4.65;;;;;;;21.28;60.16;95753.38;5011612;28;20126;-75
2021/08/23 03:23:17;;;;;;;9.30;4.60;;;;;;;21.55;59.79;95770.56;5010227;28;20077;-74
2021/08/23 03:25:43;;;;;;;6.68;4.85;;;;;;;21.69;59.43;95740.22;5009635;28;20133;-74
2021/08/23 03:28:08;;;;;;;5.40;4.28;;;;;;;21.67;59.91;95751.44;5012341;28;20034;-74
2021/08/23 03:30:33;;;;;;;8.38;5.88;;;;;;;21.49;59.83;95736.78;5010022;28;20066;-75
2021/08/23 03:32:59;;;;;;;6.35;4.40;;;;;;;21.40;59.80;95733.53;5011490;28;20077;-74
2021/08/23 03:35:24;;;;;;;6.25;5.55;;;;;;;21.60;59.92;95754.03;5011476;28;20045;-74
2021/08/23 03:37:50;;;;;;;7.88;3.95;;;;;;;21.42;59.84;95739.38;5011199;28;20077;-75
2021/08/23 03:40:15;;;;;;;5.30;4.55;;;;;;;21.49;59.68;95751.09;5009473;28;20113;-74
2021/08/23 03:42:40;;;;;;;5.20;4.53;;;;;;;21.44;59.38;95750.59;5009711;28;20091;-74
2021/08/23 03:45:06;;;;;;;4.30;3.88;;;;;;;21.85;59.54;95770.69;5009928;28;20436;-74
2021/08/23 03:47:32;;;;;;;5.40;4.68;;;;;;;21.70;59.43;95749.91;5011063;28;20038;-78
2021/08/23 03:49:57;;;;;;;4.10;3.70;;;;;;;21.85;59.36;95767.97;5009750;28;20524;-75
2021/08/23 03:52:22;;;;;;;4.80;4.30;;;;;;;21.74;59.45;95761.59;5010962;28;20726;-75
2021/08/23 03:54:48;;;;;;;4.57;4.03;;;;;;;21.60;59.66;95755.91;5011133;28;20018;-75
2021/08/23 03:57:13;;;;;;;5.93;4.15;;;;;;;21.76;58.64;95749.28;5009326;28;20030;-74
2021/08/23 03:59:38;;;;;;;3.88;3.47;;;;;;;21.43;59.29;95759.88;5011006;28;20121;-74
2021/08/23 04:02:04;;;;;;;4.05;3.65;;;;;;;21.69;59.99;95778.91;5010917;28;20037;-74
2021/08/23 04:04:29;;;;;;;5.40;4.05;;;;;;;21.57;59.57;95754.72;5010396;28;20030;-75
2021/08/23 04:06:54;;;;;;;7.72;3.80;;;;;;;21.65;59.68;95761.03;5013004;28;20042;-75
2021/08/23 04:09:20;;;;;;;4.93;4.53;;;;;;;21.48;59.47;95768.47;5009930;28;20120;-75
2021/08/23 04:11:45;;;;;;;4.25;3.88;;;;;;;21.72;59.65;95772.78;5009162;28;20044;-75
2021/08/23 04:14:11;;;;;;;4.82;3.50;;;;;;;21.48;59.97;95762.28;5010699;28;20117;-74
2021/08/23 04:16:36;;;;;;;3.97;3.28;;;;;;;21.21;60.16;95734.31;5010700;28;20483;-74
2021/08/23 04:19:01;;;;;;;4.28;3.88;;;;;;;21.50;60.01;95778.97;5011554;28;20022;-74
2021/08/23 04:21:27;;;;;;;3.88;3.50;;;;;;;21.48;60.35;95781.25;5010602;28;20053;-74
2021/08/23 04:23:52;;;;;;;6.63;4.53;;;;;;;21.80;59.79;95763.66;5010088;28;20059;-77
2021/08/23 04:26:17;;;;;;;4.45;3.95;;;;;;;21.70;59.66;95758.84;5008799;28;20046;-74
2021/08/23 04:28:43;;;;;;;6.35;5.03;;;;;;;21.62;59.64;95742.81;5010690;28;20037;-74
2021/08/23 04:31:08;;;;;;;4.65;3.92;;;;;;;21.77;59.29;95758.97;5012425;28;20404;-74
2021/08/23 04:33:33;;;;;;;4.30;3.83;;;;;;;21.62;59.78;95762.56;5010120;28;20511;-74
2021/08/23 04:35:59;;;;;;;5.07;3.13;;;;;;;21.75;59.49;95769.38;5009880;28;20524;-74
2021/08/23 04:38:24;;;;;;;9.50;3.90;;;;;;;21.82;59.44;95755.16;5010064;28;20492;-74
2021/08/23 04:40:50;;;;;;;3.70;3.35;;;;;;;21.79;59.64;95750.47;5008173;28;20052;-74
2021/08/23 04:43:15;;;;;;;3.80;3.40;;;;;;;22.00;59.19;95750.81;5011061;28;20040;-75
2021/08/23 04:45:41;;;;;;;4.18;3.88;;;;;;;21.90;59.31;95756.06;5008612;28;20534;-74
2021/08/23 04:48:06;;;;;;;6.25;4.05;;;;;;;22.04;58.90;95764.44;5010255;28;20120;-75
2021/08/23 04:50:31;;;;;;;4.72;3.80;;;;;;;21.83;59.58;95766.78;5009942;28;20469;-75
2021/08/23 04:52:57;;;;;;;4.70;3.47;;;;;;;21.70;59.79;95779.69;5010029;28;20485;-74
2021/08/23 04:55:23;;;;;;;3.42;3.13;;;;;;;21.54;59.49;95769.75;5008332;28;20506;-75
2021/08/23 04:57:48;;;;;;;3.65;3.33;;;;;;;22.17;58.77;95768.56;5010895;28;20049;-75
2021/08/23 05:00:14;;;;;;;4.30;3.30;;;;;;;21.96;58.28;95770.88;5010439;28;20041;-75
2021/08/23 05:02:39;;;;;;;5.93;4.57;;;;;;;21.93;58.52;95771.59;5009973;28;20053;-74
2021/08/23 05:05:06;;;;;;;3.83;3.47;;;;;;;22.06;59.15;95778.41;5008683;28;20045;-74
2021/08/23 05:07:31;;;;;;;4.63;3.13;;;;;;;21.90;58.80;95750.66;5005019;28;20423;-75
2021/08/23 05:09:57;;;;;;;4.20;3.58;;;;;;;22.26;59.05;95768.28;5009733;28;20032;-72
2021/08/23 05:12:22;;;;;;;6.70;3.08;;;;;;;22.43;57.90;95758.88;5008839;28;20073;-77
2021/08/23 05:14:48;;;;;;;5.28;3.00;;;;;;;22.38;58.30;95764.63;5009636;28;20682;-76
2021/08/23 05:17:13;;;;;;;4.18;2.70;;;;;;;22.61;58.20;95778.88;5010165;28;20034;-74
2021/08/23 05:19:38;;;;;;;5.43;2.70;;;;;;;22.73;57.83;95773.25;5008265;28;20109;-73
2021/08/23 05:22:04;;;;;;;3.03;2.75;;;;;;;22.67;58.36;95777.41;5011598;28;20026;-74
2021/08/23 05:24:29;;;;;;;2.75;2.55;;;;;;;22.87;58.03;95769.94;5005114;28;20039;-73
2021/08/23 05:26:54;;;;;;;4.90;2.90;;;;;;;22.95;58.05;95776.28;5004891;28;20030;-74
2021/08/23 05:29:20;;;;;;;3.20;2.35;;;;;;;22.87;57.90;95771.88;5006012;28;20064;-74
2021/08/23 05:31:45;;;;;;;2.30;2.10;;;;;;;22.87;57.96;95758.31;5008173;28;20137;-73
2021/08/23 05:34:11;;;;;;;4.80;2.72;;;;;;;22.81;58.23;95772.19;5010233;28;20034;-73
2021/08/23 05:36:37;;;;;;;3.47;2.67;;;;;;;23.14;57.47;95767.22;5007693;28;20152;-69
2021/08/23 05:39:02;;;;;;;4.30;2.40;;;;;;;23.27;57.69;95771.25;5008514;28;20046;-68
2021/08/23 05:41:28;;;;;;;2.90;2.60;;;;;;;23.14;57.90;95769.94;4998265;28;20404;-71
2021/08/23 05:43:54;;;;;;;3.10;2.25;;;;;;;23.19;57.65;95770.38;5008061;28;20041;-74
2021/08/23 05:46:23;;;;;;;3.00;2.67;;;;;;;23.47;57.68;95785.44;5007658;28;20033;-68
2021/08/23 05:48:49;;;;;;;6.80;2.45;;;;;;;23.53;56.99;95789.38;5011113;28;20026;-68
2021/08/23 05:51:15;;;;;;;2.50;2.10;;;;;;;23.03;57.35;95791.47;5009404;28;20034;-67
2021/08/23 05:53:42;;;;;;;3.65;2.33;;;;;;;23.14;58.01;95775.38;5009038;28;20053;-68
2021/08/23 05:56:08;;;;;;;2.60;2.00;;;;;;;22.46;56.17;95788.72;5013315;28;20392;-68
2021/08/23 05:58:33;;;;;;;2.90;2.05;;;;;;;22.65;56.99;95782.44;5008885;28;20037;-68
2021/08/23 06:01:00;;;;;;;2.22;2.03;;;;;;;22.79;57.54;95776.44;5010856;28;20057;-68
2021/08/23 06:03:25;;;;;;;3.05;1.90;;;;;;;22.22;56.29;95781.03;5007540;28;20671;-68
2021/08/23 06:05:51;;;;;;;3.85;2.20;;;;;;;20.87;57.30;95781.91;5008559;28;20064;-67
2021/08/23 06:08:16;;;;;;;2.83;2.10;;;;;;;21.11;59.40;95789.00;5009034;28;20121;-68
2021/08/23 06:10:41;;;;;;;4.45;2.58;;;;;;;21.42;59.58;95798.91;5008438;28;20073;-68
2021/08/23 06:13:07;;;;;;;2.50;2.30;;;;;;;21.47;58.96;95785.09;5010092;28;20026;-69
2021/08/23 06:15:32;;;;;;;3.00;2.25;;;;;;;21.73;57.84;95789.81;5006864;28;20166;-67
2021/08/23 06:17:58;;;;;;;5.85;2.15;;;;;;;21.71;56.56;95795.59;5008411;28;20092;-69
2021/08/23 06:20:23;;;;;;;4.68;2.40;;;;;;;22.26;58.36;95785.31;5007121;28;20464;-69
2021/08/23 06:22:50;;;;;;;3.65;2.20;;;;;;;21.75;58.34;95806.47;5008207;28;20044;-68
2021/08/23 06:25:16;;;;;;;4.60;2.13;;;;;;;21.25;59.01;95803.59;5010318;28;20030;-67
2021/08/23 06:27:41;;;;;;;2.45;2.03;;;;;;;21.71;58.71;95798.31;5007024;28;20044;-67
2021/08/23 06:30:08;;;;;;;3.75;2.10;;;;;;;21.52;57.24;95796.41;5007192;28;20038;-67
2021/08/23 06:32:34;;;;;;;4.88;2.30;;;;;;;21.72;57.49;95799.09;5008266;28;20046;-68
2021/08/23 06:34:59;;;;;;;2.33;2.13;;;;;;;21.86;56.77;95793.16;5008139;28;20083;-67
2021/08/23 06:37:24;;;;;;;4.10;2.17;;;;;;;21.92;54.61;95791.72;5008140;28;20022;-67
2021/08/23 06:39:50;;;;;;;4.38;2.20;;;;;;;22.69;56.45;95791.41;5002100;28;20066;-69
2021/08/23 06:42:15;;;;;;;3.05;1.90;;;;;;;21.24;55.42;95796.63;5008233;28;20042;-68
2021/08/23 06:44:40;;;;;;;3.83;1.90;;;;;;;21.56;56.62;95793.78;5007561;28;20046;-68
2021/08/23 06:47:06;;;;;;;2.33;2.08;;;;;;;21.99;57.74;95797.25;5007027;28;20129;-70
2021/08/23 06:49:31;;;;;;;2.80;2.05;;;;;;;22.03;55.04;95787.25;5007154;28;20391;-70
2021/08/23 06:51:57;;;;;;;1.70;1.60;;;;;;;22.28;56.31;95782.28;5010416;28;20092;-75
2021/08/23 06:54:22;;;;;;;2.47;2.10;;;;;;;21.91;56.13;95784.72;5007961;28;20087;-71
2021/08/23 06:56:49;;;;;;;2.28;2.08;;;;;;;21.79;57.90;95791.88;5007089;28;20050;-70
2021/08/23 06:59:14;;;;;;;2.35;1.70;;;;;;;21.42;59.02;95798.91;5008303;28;20034;-70
2021/08/23 07:01:40;;;;;;;7.22;2.00;;;;;;;21.72;58.11;95805.28;5007086;28;20810;-70
2021/08/23 07:04:08;;;;;;;2.58;1.67;;;;;;;20.73;56.96;95798.63;5010104;28;20386;-71
2021/08/23 07:06:33;;;;;;;2.08;1.85;;;;;;;22.37;54.96;95782.00;5008154;28;20056;-71
2021/08/23 07:08:58;;;;;;;3.03;2.10;;;;;;;22.65;54.63;95779.72;5008332;28;20488;-71
2021/08/23 07:11:24;;;;;;;4.40;2.13;;;;;;;22.08;53.44;95783.47;5007398;28;20537;-71
2021/08/23 07:13:49;;;;;;;3.83;1.90;;;;;;;23.32;55.37;95785.25;5008232;28;20037;-69
2021/08/23 07:16:15;;;;;;;4.97;2.17;;;;;;;21.20;55.41;95797.69;5012008;28;20022;-73
2021/08/23 07:18:40;;;;;;;4.22;2.10;;;;;;;20.94;55.50;95792.91;5006656;28;20057;-69
2021/08/23 07:21:06;;;;;;;4.68;1.73;;;;;;;21.31;55.24;95792.50;5011677;28;20120;-70
2021/08/23 07:23:31;;;;;;;2.67;1.88;;;;;;;22.78;55.53;95774.88;5009812;28;20077;-69
2021/08/23 07:25:57;;;;;;;2.55;2.05;;;;;;;22.64;51.06;95783.59;5009836;28;20108;-71
2021/08/23 07:28:22;;;;;;;2.83;1.85;;;;;;;21.47;55.72;95779.69;5008873;28;20026;-70
2021/08/23 07:30:48;;;;;;;4.13;2.17;;;;;;;21.84;54.62;95793.50;5013412;28;20033;-69
2021/08/23 07:33:13;;;;;;;2.58;2.17;;;;;;;21.15;56.33;95793.34;5011483;28;20125;-73
2021/08/23 07:35:39;;;;;;;5.25;2.17;;;;;;;21.04;56.28;95786.94;5011381;28;20069;-72
2021/08/23 07:38:04;;;;;;;3.88;2.00;;;;;;;21.19;55.42;95805.03;5012111;28;20429;-71
2021/08/23 07:40:31;;;;;;;2.80;1.90;;;;;;;21.88;55.32;95782.72;5011014;28;20022;-69
2021/08/23 07:42:57;;;;;;;2.38;1.92;;;;;;;21.80;53.81;95800.78;5013785;28;20010;-77
2021/08/23 07:45:23;;;;;;;2.63;2.30;;;;;;;20.54;58.23;95806.69;5009143;28;20068;-77
2021/08/23 07:47:48;;;;;;;3.83;2.50;;;;;;;19.98;60.13;95800.31;5010413;28;20049;-77
2021/08/23 07:50:15;;;;;;;2.75;2.45;;;;;;;19.62;61.09;95787.06;5010249;28;20033;-72
2021/08/23 07:52:40;;;;;;;6.00;2.58;;;;;;;19.64;62.46;95782.88;5009401;28;20041;-72
2021/08/23 07:55:08;;;;;;;2.72;2.47;;;;;;;20.34;59.11;95798.47;5012049;28;20018;-69
2021/08/23 07:57:33;;;;;;;3.25;1.85;;;;;;;20.37;58.48;95794.28;5010880;28;20038;-71
2021/08/23 07:59:59;;;;;;;4.03;2.10;;;;;;;21.36;56.87;95795.72;5011281;28;20093;-72
2021/08/23 08:02:24;;;;;;;3.80;2.20;;;;;;;21.51;56.13;95802.97;5011194;28;20045;-69
2021/08/23 08:04:50;;;;;;;3.50;2.40;;;;;;;20.88;56.47;95805.09;5010435;28;20032;-72
2021/08/23 08:07:17;;;;;;;2.30;2.10;;;;;;;21.58;54.65;95788.78;5012634;28;20025;-71
2021/08/23 08:09:42;;;;;;;2.40;2.20;;;;;;;20.97;56.20;95803.78;5009396;28;20576;-73
2021/08/23 08:12:07;;;;;;;3.90;2.10;;;;;;;20.59;57.00;95796.38;5009729;28;20129;-71
2021/08/23 08:14:33;;;;;;;4.28;2.00;;;;;;;21.71;55.80;95787.47;5010515;28;20338;-70
2021/08/23 08:16:58;;;;;;;2.35;2.15;;;;;;;21.11;55.83;95797.88;5010324;28;20503;-71
2021/08/23 08:19:25;;;;;;;3.03;2.38;;;;;;;21.09;57.21;95805.59;5010368;28;20079;-70
2021/08/23 08:21:50;;;;;;;5.18;2.20;;;;;;;20.79;57.18;95810.72;5010869;28;20030;-69
2021/08/23 08:24:16;;;;;;;3.08;1.85;;;;;;;20.25;57.54;95805.97;5008842;28;20038;-70
2021/08/23 08:26:42;;;;;;;3.67;2.20;;;;;;;21.23;55.88;95805.84;5008063;28;20049;-70
2021/08/23 08:29:07;;;;;;;2.60;2.22;;;;;;;21.59;55.57;95809.28;5010204;28;20117;-70
2021/08/23 08:31:33;;;;;;;3.13;2.47;;;;;;;20.83;58.22;95802.69;5009080;28;20105;-74
2021/08/23 08:33:58;;;;;;;4.35;2.75;;;;;;;20.59;57.55;95812.59;5010720;28;20026;-70
2021/08/23 08:36:24;;;;;;;3.75;2.20;;;;;;;20.08;59.48;95804.41;5008295;28;20492;-70
2021/08/23 08:38:49;;;;;;;5.13;2.63;;;;;;;20.84;58.49;95798.88;5009820;28;20125;-71
2021/08/23 08:41:16;;;;;;;4.45;2.25;;;;;;;22.33;55.52;95798.22;5008283;28;20616;-70
2021/08/23 08:43:41;;;;;;;2.40;2.20;;;;;;;22.08;54.75;95802.44;5007826;28;20548;-70
2021/08/23 08:46:07;;;;;;;4.18;2.47;;;;;;;22.22;54.66;95795.34;5010564;28;20121;-70
2021/08/23 08:48:34;;;;;;;4.57;2.25;;;;;;;22.22;54.99;95800.00;5008502;28;20066;-70
2021/08/23 08:51:00;;;;;;;5.25;2.42;;;;;;;22.38;53.30;95802.56;5008779;28;20070;-70
2021/08/23 08:53:25;;;;;;;2.65;2.33;;;;;;;23.26;50.82;95791.41;5006573;28;20038;-70
2021/08/23 08:55:51;;;;;;;3.50;2.85;;;;;;;22.17;53.54;95795.66;5007842;28;20046;-71
2021/08/23 08:58:21;;;;;;;3.53;2.28;;;;;;;23.27;52.74;95793.72;5010451;28;20025;-70
2021/08/23 09:00:46;;;;;;;3.55;2.35;;;;;;;23.48;49.77;95781.56;5009236;28;20415;-70
2021/08/23 09:03:27;;;;;;;3.05;1.88;;;;;;;22.62;52.18;95790.50;5007139;28;20045;-70
2021/08/23 09:06:08;;;;;;;3.30;2.10;;;;;;;23.72;50.95;95781.06;5008185;28;20038;-70
2021/08/23 09:08:41;;;;;;;2.10;1.90;;;;;;;21.70;53.16;95806.78;5008987;28;20049;-70
2021/08/23 09:11:09;;;;;;;2.63;1.95;;;;;;;22.68;51.34;95791.78;5008613;28;20447;-70
2021/08/23 09:13:37;;;;;;;3.67;2.10;;;;;;;22.15;52.43;95792.50;5007172;28;20026;-70
2021/08/23 09:16:03;;;;;;;3.05;1.90;;;;;;;23.21;52.04;95784.34;5009589;28;20022;-70
2021/08/23 09:18:28;;;;;;;2.75;2.00;;;;;;;22.44;51.65;95795.69;5008163;28;20080;-69
2021/08/23 09:20:59;;;;;;;2.42;2.20;;;;;;;23.04;50.83;95787.66;5006732;28;20038;-71
2021/08/23 09:23:37;;;;;;;2.47;1.90;;;;;;;21.88;53.03;95796.28;5006507;28;20117;-70
2021/08/23 09:26:07;;;;;;;3.55;1.95;;;;;;;22.25;52.54;95791.88;5006595;28;20407;-71
2021/08/23 09:28:32;;;;;;;3.90;2.47;;;;;;;21.71;53.29;95806.44;5008232;28;20030;-70
2021/08/23 09:30:58;;;;;;;2.80;1.65;;;;;;;21.68;53.16;95801.72;5010106;28;20025;-71
2021/08/23 09:33:24;;;;;;;3.60;2.38;;;;;;;22.38;51.94;95802.56;5007940;28;20053;-71
2021/08/23 09:35:51;;;;;;;3.28;2.42;;;;;;;22.41;53.79;95796.38;5008734;28;20037;-71
2021/08/23 09:38:18;;;;;;;3.90;2.30;;;;;;;22.17;52.61;95786.75;5008729;28;20046;-71
2021/08/23 09:40:45;;;;;;;3.28;2.20;;;;;;;21.54;54.73;95801.44;5008481;28;20133;-76
2021/08/23 09:43:13;;;;;;;6.85;3.00;;;;;;;21.07;57.76;95805.13;5020948;28;20097;-75
2021/08/23 09:45:52;;;;;;;7.40;3.33;;;;;;;20.97;59.04;95800.28;5029009;28;20038;-76
2021/08/23 09:48:18;;;;;;;5.15;3.10;;;;;;;20.39;59.53;95805.53;5029379;28;20421;-75
2021/08/23 09:50:47;;;;;;;3.35;3.05;;;;;;;21.22;58.34;95798.09;5029378;28;20040;-76
2021/08/23 09:53:15;;;;;;;4.18;2.30;;;;;;;20.76;57.67;95808.72;5027669;28;20049;-75
2021/08/23 09:55:42;;;;;;;2.80;2.60;;;;;;;20.94;57.95;95801.00;5023787;28;20046;-76
2021/08/23 09:58:10;;;;;;;2.63;2.40;;;;;;;21.22;57.37;95798.88;5011390;28;20026;-78
2021/08/23 10:00:39;;;;;;;3.22;2.30;;;;;;;20.38;59.83;95785.84;5009939;28;20069;-75
2021/08/23 10:03:14;;;;;;;2.67;2.47;;;;;;;20.87;59.16;95792.72;5009435;28;20045;-75
2021/08/23 10:05:42;;;;;;;2.88;2.60;;;;;;;21.73;57.43;95806.06;5009154;28;20034;-75
2021/08/23 10:08:10;;;;;;;4.10;2.53;;;;;;;21.40;57.12;95799.28;5009360;28;20471;-75
2021/08/23 10:10:39;;;;;;;4.28;2.55;;;;;;;21.84;55.92;95781.88;5007005;28;20480;-73
2021/08/23 10:13:04;;;;;;;4.18;2.40;;;;;;;22.01;55.50;95784.91;5010699;28;20558;-77
2021/08/23 10:15:30;;;;;;;2.75;2.40;;;;;;;21.85;55.72;95789.63;5008820;28;20034;-76
2021/08/23 10:17:56;;;;;;;2.30;1.98;;;;;;;21.59;55.79;95774.09;5009517;28;20136;-79
2021/08/23 10:20:22;;;;;;;2.13;1.92;;;;;;;21.31;57.03;95776.28;5009197;28;20065;-84
2021/08/23 10:22:48;;;;;;;2.85;2.30;;;;;;;22.15;55.51;95772.75;5008234;28;20092;-81
2021/08/23 10:25:16;;;;;;;3.00;2.03;;;;;;;22.17;55.00;95768.56;5011194;28;20025;-82
2021/08/23 10:27:41;;;;;;;2.60;1.90;;;;;;;22.30;53.78;95766.41;5019557;28;20400;-73
2021/08/23 10:30:08;;;;;;;2.22;1.83;;;;;;;21.74;55.41;95762.38;5028357;28;20038;-81
2021/08/23 10:32:40;;;;;;;2.17;1.98;;;;;;;21.61;55.63;95777.25;5027710;28;20061;-72
2021/08/23 10:35:21;;;;;;;;;;;;;;;22.07;54.59;95769.13;5028336;28;20510;-71
2021/08/23 10:37:49;;;;;;;1.70;1.60;;;;;;;21.66;52.74;95760.69;5028197;28;19916;-72
2021/08/23 10:40:15;;;;;;;4.05;1.55;;;;;;;21.47;53.75;95768.84;5030429;28;20045;-80
2021/08/23 10:42:46;;;;;;;2.10;1.70;;;;;;;21.68;53.58;95771.94;5005291;28;20108;-75
2021/08/23 10:45:15;;;;;;;2.47;1.70;;;;;;;22.01;53.66;95760.53;5009241;28;20037;-75
2021/08/23 10:47:41;;;;;;;1.73;1.63;;;;;;;22.08;52.49;95767.97;5007737;28;20054;-77
2021/08/23 10:50:19;;;;;;;1.77;1.63;;;;;;;22.16;52.70;95756.16;5012769;28;20030;-81
2021/08/23 10:52:45;;;;;;;1.73;1.60;;;;;;;22.39;51.96;95755.31;5014910;28;20030;-86
2021/08/23 10:55:22;;;;;;;1.90;1.80;;;;;;;21.67;53.09;95764.97;5015844;28;20037;-81
2021/08/23 10:57:48;;;;;;;2.78;1.92;;;;;;;21.54;52.56;95753.50;5016967;28;20030;-82
2021/08/23 11:00:15;;;;;;;2.75;2.10;;;;;;;22.01;52.02;95751.63;5014687;28;20038;-78
2021/08/23 11:02:40;;;;;;;2.78;2.05;;;;;;;22.28;51.51;95747.81;5013316;28;20041;-79
2021/08/23 11:05:12;;;;;;;4.03;1.77;;;;;;;23.42;48.22;95740.38;5013520;28;20113;-85
2021/08/23 11:07:40;;;;;;;2.70;1.70;;;;;;;23.19;48.38;95751.41;5015584;28;20018;-79
2021/08/23 11:10:17;;;;;;;1.83;1.65;;;;;;;23.21;49.30;95743.66;5012860;28;20060;-70
2021/08/23 11:12:46;;;;;;;2.45;1.60;;;;;;;22.42;50.53;95743.75;5011561;28;20154;-81
2021/08/23 11:15:18;;;;;;;1.63;1.52;;;;;;;22.95;49.76;95738.31;5011773;28;20483;-71
2021/08/23 11:17:45;;;;;;;1.70;1.60;;;;;;;22.54;50.43;95733.47;5010119;28;20045;-70
2021/08/23 11:20:11;;;;;;;3.40;1.77;;;;;;;23.35;48.39;95732.97;5010399;28;20124;-69
2021/08/23 11:22:38;;;;;;;2.20;1.80;;;;;;;22.89;49.20;95728.94;5011425;28;20097;-70
2021/08/23 11:25:04;;;;;;;2.97;1.73;;;;;;;22.18;49.66;95729.47;5011981;28;20073;-69
2021/08/23 11:27:30;;;;;;;2.85;1.45;;;;;;;22.63;49.29;95727.78;5009564;28;20496;-69
2021/08/23 11:29:56;;;;;;;1.77;1.33;;;;;;;22.10;50.48;95727.75;5011817;28;20124;-70